createdAt,value
2023-03-12T00:02:07.720Z,4.11
2023-03-12T00:04:36.361Z,4.08
2023-03-12T00:07:07.427Z,4.03
2023-03-12T00:09:40.181Z,4.06
2023-03-12T00:12:07.912Z,3.98
2023-03-12T00:14:35.312Z,3.97
2023-03-12T00:17:05.865Z,3.91
2023-03-12T00:19:33.900Z,3.88
2023-03-12T00:22:01.571Z,3.81
2023-03-12T00:24:29.113Z,3.76
2023-03-12T00:26:56.775Z,3.76
2023-03-12T00:29:23.983Z,3.67
2023-03-12T00:31:52.015Z,3.63
2023-03-12T00:34:18.903Z,3.64
2023-03-12T00:36:47.907Z,3.65
2023-03-12T00:39:15.184Z,3.58
2023-03-12T00:41:42.065Z,3.56
2023-03-12T00:44:11.213Z,3.55
2023-03-12T00:46:39.823Z,3.53
2023-03-12T00:49:09.068Z,3.45
2023-03-12T00:51:37.434Z,3.36
2023-03-12T00:54:05.134Z,3.44
2023-03-12T00:56:33.302Z,3.41
2023-03-12T00:59:00.672Z,3.33
2023-03-12T01:01:29.207Z,3.44
2023-03-12T01:03:59.321Z,3.43
2023-03-12T01:06:27.387Z,3.29
2023-03-12T01:08:56.588Z,3.31
2023-03-12T01:11:23.723Z,3.18
2023-03-12T01:13:51.640Z,3.07
2023-03-12T01:16:18.438Z,2.79
2023-03-12T01:18:46.166Z,2.97
2023-03-12T01:21:16.751Z,2.84
2023-03-12T01:23:44.217Z,2.77
2023-03-12T01:26:11.389Z,2.71
2023-03-12T01:28:38.624Z,2.47
2023-03-12T01:31:10.816Z,2.45
2023-03-12T01:33:41.218Z,2.36
2023-03-12T01:36:30.275Z,2.18
2023-03-12T01:39:05.542Z,2.27
2023-03-12T01:41:34.446Z,2.22
2023-03-12T01:44:04.116Z,2.05
2023-03-12T01:46:46.373Z,1.84
2023-03-12T01:49:25.901Z,1.67
2023-03-12T01:52:12.500Z,1.63
2023-03-12T01:54:49.502Z,1.51
2023-03-12T01:57:19.924Z,1.63
2023-03-12T01:59:53.360Z,1.53
2023-03-12T02:02:27.490Z,1.48
2023-03-12T02:05:25.715Z,1.32
2023-03-12T02:07:53.477Z,1.15
2023-03-12T02:10:21.530Z,0.98
2023-03-12T02:12:48.208Z,0.81
2023-03-12T02:15:15.138Z,0.64
2023-03-12T02:17:46.445Z,0.61
2023-03-12T02:20:29.005Z,0.57
2023-03-12T02:23:34.766Z,0.45
2023-03-12T02:26:03.473Z,0.39
2023-03-12T02:28:31.293Z,0.14
2023-03-12T02:31:04.548Z,0.21
2023-03-12T02:33:31.486Z,0.01
2023-03-12T02:35:58.838Z,0.02
2023-03-12T02:38:29.778Z,0.09
2023-03-12T02:40:59.770Z,-0.12
2023-03-12T02:43:28.327Z,-0.18
2023-03-12T02:45:58.341Z,-0.05
2023-03-12T02:48:26.167Z,-0.04
2023-03-12T02:50:53.207Z,-0.07
2023-03-12T02:53:21.917Z,-0.02
2023-03-12T02:55:49.833Z,-0.05
2023-03-12T02:58:18.501Z,-0.16
2023-03-12T03:00:45.935Z,-0.16
2023-03-12T03:03:14.684Z,-0.24
2023-03-12T03:05:41.483Z,-0.44
2023-03-12T03:08:09.083Z,-0.37
2023-03-12T03:10:36.586Z,-0.39
2023-03-12T03:13:03.943Z,-0.33
2023-03-12T03:15:31.528Z,-0.36
2023-03-12T03:17:58.917Z,-0.37
2023-03-12T03:20:27.514Z,-0.34
2023-03-12T03:22:54.625Z,-0.42
2023-03-12T03:25:24.513Z,-0.48
2023-03-12T03:27:51.445Z,-0.40
2023-03-12T03:30:19.047Z,-0.34
2023-03-12T03:32:46.423Z,-0.34
2023-03-12T03:35:15.038Z,-0.57
2023-03-12T03:37:41.709Z,-0.48
2023-03-12T03:40:11.894Z,-0.65
2023-03-12T03:42:40.680Z,-0.61
2023-03-12T03:45:08.925Z,-0.65
2023-03-12T03:47:37.925Z,-0.73
2023-03-12T03:50:08.156Z,-0.84
2023-03-12T03:52:35.006Z,-0.99
2023-03-12T03:55:02.112Z,-0.89
2023-03-12T03:57:31.880Z,-0.86
2023-03-12T04:00:01.564Z,-0.86
2023-03-12T04:02:31.374Z,-0.90
2023-03-12T04:04:59.255Z,-1.02
2023-03-12T04:07:28.570Z,-0.94
2023-03-12T04:09:57.044Z,-1.05
2023-03-12T04:12:26.302Z,-0.97
2023-03-12T04:14:54.108Z,-1.05
2023-03-12T04:17:22.018Z,-1.08
2023-03-12T04:19:49.608Z,-1.19
2023-03-12T04:22:16.925Z,-1.35
2023-03-12T04:24:44.310Z,-1.27
2023-03-12T04:27:12.898Z,-1.38
2023-03-12T04:29:40.927Z,-1.37
2023-03-12T04:32:09.056Z,-1.32
2023-03-12T04:34:36.477Z,-1.41
2023-03-12T04:37:03.573Z,-1.52
2023-03-12T04:39:31.494Z,-1.42
2023-03-12T04:41:58.965Z,-1.65
2023-03-12T04:44:26.397Z,-1.66
2023-03-12T04:46:54.235Z,-1.70
2023-03-12T04:49:22.280Z,-1.79
2023-03-12T04:51:49.581Z,-1.68
2023-03-12T04:54:18.592Z,-1.69
2023-03-12T04:56:46.714Z,-1.65
2023-03-12T04:59:14.655Z,-1.63
2023-03-12T05:01:42.417Z,-1.69
2023-03-12T05:04:10.027Z,-1.66
2023-03-12T05:06:37.694Z,-1.66
2023-03-12T05:09:05.753Z,-1.65
2023-03-12T05:11:33.400Z,-1.61
2023-03-12T05:14:00.516Z,-1.54
2023-03-12T05:16:28.103Z,-1.57
2023-03-12T05:18:55.756Z,-1.59
2023-03-12T05:21:25.427Z,-1.66
2023-03-12T05:23:52.207Z,-1.88
2023-03-12T05:26:24.836Z,-1.79
2023-03-12T05:28:53.281Z,-1.75
2023-03-12T05:31:21.985Z,-1.73
2023-03-12T05:33:52.671Z,-1.76
2023-03-12T05:36:20.853Z,-1.74
2023-03-12T05:38:48.285Z,-1.81
2023-03-12T05:41:27.002Z,-1.85
2023-03-12T05:43:55.171Z,-1.98
2023-03-12T05:46:24.635Z,-1.84
2023-03-12T05:48:52.046Z,-1.77
2023-03-12T05:51:21.960Z,-1.78
2023-03-12T05:53:48.876Z,-1.76
2023-03-12T05:56:20.551Z,-1.76
2023-03-12T05:58:49.058Z,-1.68
2023-03-12T06:01:25.347Z,-1.73
2023-03-12T06:03:53.480Z,-1.69
2023-03-12T06:06:21.568Z,-1.85
2023-03-12T06:08:48.394Z,-1.84
2023-03-12T06:11:18.347Z,-1.73
2023-03-12T06:13:45.376Z,-1.87
2023-03-12T06:16:19.534Z,-1.79
2023-03-12T06:18:46.327Z,-1.75
2023-03-12T06:21:16.577Z,-1.69
2023-03-12T06:23:44.541Z,-1.66
2023-03-12T06:26:12.895Z,-1.61
2023-03-12T06:28:41.545Z,-1.71
2023-03-12T06:31:09.365Z,-1.88
2023-03-12T06:33:36.802Z,-1.72
2023-03-12T06:36:06.197Z,-1.72
2023-03-12T06:38:35.090Z,-1.72
2023-03-12T06:41:21.236Z,-1.70
2023-03-12T06:43:48.537Z,-1.59
2023-03-12T06:46:20.788Z,-1.61
2023-03-12T06:48:49.149Z,-1.59
2023-03-12T06:51:16.765Z,-1.83
2023-03-12T06:53:44.381Z,-1.79
2023-03-12T06:56:13.112Z,-1.65
2023-03-12T06:58:40.525Z,-1.76
2023-03-12T07:01:09.349Z,-1.77
2023-03-12T07:03:37.016Z,-1.98
2023-03-12T07:06:05.022Z,-1.84
2023-03-12T07:08:31.812Z,-1.79
2023-03-12T07:11:01.922Z,-1.73
2023-03-12T07:13:29.709Z,-1.87
2023-03-12T07:15:57.316Z,-1.60
2023-03-12T07:18:24.361Z,-1.80
2023-03-12T07:20:53.486Z,-1.64
2023-03-12T07:23:21.295Z,-1.59
2023-03-12T07:25:48.992Z,-1.54
2023-03-12T07:28:16.798Z,-1.51
2023-03-12T07:30:50.988Z,-1.48
2023-03-12T07:33:20.135Z,-1.42
2023-03-12T07:35:51.278Z,-1.38
2023-03-12T07:38:20.244Z,-1.36
2023-03-12T07:40:51.897Z,-1.37
2023-03-12T07:43:21.640Z,-1.16
2023-03-12T07:45:49.693Z,-1.20
2023-03-12T07:48:17.401Z,-1.57
2023-03-12T07:50:44.640Z,-1.36
2023-03-12T07:53:12.552Z,-1.17
2023-03-12T07:55:39.373Z,-1.21
2023-03-12T07:58:09.979Z,-1.00
2023-03-12T08:00:36.680Z,-0.90
2023-03-12T08:03:04.383Z,-0.73
2023-03-12T08:05:31.397Z,-0.68
2023-03-12T08:07:58.472Z,-0.85
2023-03-12T08:10:25.314Z,-0.69
2023-03-12T08:12:52.353Z,-0.76
2023-03-12T08:15:20.714Z,-0.54
2023-03-12T08:17:48.330Z,-0.87
2023-03-12T08:20:15.864Z,-0.90
2023-03-12T08:22:43.023Z,-0.99
2023-03-12T08:25:13.333Z,-0.74
2023-03-12T08:27:41.777Z,-0.92
2023-03-12T08:30:09.924Z,-1.04
2023-03-12T08:32:37.868Z,-0.97
2023-03-12T08:35:06.165Z,-1.04
2023-03-12T08:37:33.238Z,-1.11
2023-03-12T08:40:02.415Z,-1.11
2023-03-12T08:42:31.486Z,-1.03
2023-03-12T08:45:00.250Z,-1.25
2023-03-12T08:47:27.183Z,-0.62
2023-03-12T08:49:54.965Z,-0.77
2023-03-12T08:52:24.936Z,-0.70
2023-03-12T08:54:51.846Z,-0.61
2023-03-12T08:57:18.927Z,-0.54
2023-03-12T08:59:46.789Z,-0.59
2023-03-12T09:02:14.401Z,-0.56
2023-03-12T09:04:41.211Z,-0.49
2023-03-12T09:07:10.345Z,-0.63
2023-03-12T09:09:37.987Z,-0.38
2023-03-12T09:12:05.102Z,-0.11
2023-03-12T09:17:19.590Z,0.02
2023-03-12T09:19:47.072Z,-0.09
2023-03-12T09:22:18.704Z,0.03
2023-03-12T09:24:46.236Z,-0.39
2023-03-12T09:27:13.466Z,0.10
2023-03-12T09:29:58.672Z,-0.04
2023-03-12T09:32:27.539Z,-0.47
2023-03-12T09:34:54.744Z,-0.22
2023-03-12T09:37:24.101Z,-0.09
2023-03-12T09:39:52.573Z,-0.26
2023-03-12T09:42:32.410Z,-0.48
2023-03-12T09:45:02.259Z,-0.13
2023-03-12T09:47:31.632Z,0.08
2023-03-12T09:50:04.407Z,-0.07
2023-03-12T09:52:35.584Z,0.06
2023-03-12T09:55:16.673Z,0.16
2023-03-12T09:57:45.455Z,0.27
2023-03-12T10:00:18.553Z,0.16
2023-03-12T10:03:07.536Z,0.21
2023-03-12T10:05:46.485Z,0.09
2023-03-12T10:08:48.925Z,0.35
2023-03-12T10:11:46.752Z,0.02
2023-03-12T10:14:24.518Z,0.40
2023-03-12T10:17:27.824Z,-0.16
2023-03-12T10:20:32.003Z,0.16
2023-03-12T10:23:11.550Z,0.37
2023-03-12T10:25:44.792Z,0.21
2023-03-12T10:28:16.192Z,0.42
2023-03-12T10:30:48.861Z,0.39
2023-03-12T10:33:18.485Z,0.11
2023-03-12T10:35:47.519Z,0.28
2023-03-12T10:38:22.958Z,0.10
2023-03-12T10:40:51.202Z,0.40
2023-03-12T10:43:21.602Z,0.14
2023-03-12T10:46:04.830Z,0.05
2023-03-12T10:48:31.697Z,0.23
2023-03-12T10:51:07.011Z,0.12
2023-03-12T10:53:35.629Z,-0.09
2023-03-12T10:56:09.075Z,-0.04
2023-03-12T10:58:41.882Z,0.06
2023-03-12T11:01:32.672Z,0.35
2023-03-12T11:04:22.392Z,0.41
2023-03-12T11:07:15.312Z,0.58
2023-03-12T11:09:42.478Z,0.65
2023-03-12T11:12:25.070Z,0.71
2023-03-12T11:14:53.678Z,0.88
2023-03-12T11:17:25.022Z,0.62
2023-03-12T11:19:52.443Z,0.79
2023-03-12T11:22:34.298Z,1.52
2023-03-12T11:25:20.591Z,1.63
2023-03-12T11:27:54.035Z,1.53
2023-03-12T11:30:26.638Z,1.16
2023-03-12T11:32:53.519Z,0.80
2023-03-12T11:35:28.423Z,1.02
2023-03-12T11:38:11.946Z,1.57
2023-03-12T11:41:20.648Z,1.26
2023-03-12T11:44:09.612Z,1.14
2023-03-12T11:47:22.643Z,1.26
2023-03-12T11:50:08.198Z,1.37
2023-03-12T11:52:51.375Z,1.20
2023-03-12T11:55:36.501Z,1.35
2023-03-12T11:58:13.830Z,1.50
2023-03-12T12:00:54.678Z,1.75
2023-03-12T12:03:44.520Z,1.94
2023-03-12T12:06:40.271Z,1.83
2023-03-12T12:09:28.211Z,1.75
2023-03-12T12:12:09.085Z,1.75
2023-03-12T12:14:50.412Z,1.71
2023-03-12T12:17:45.632Z,1.73
2023-03-12T12:20:27.173Z,1.86
2023-03-12T12:23:03.334Z,2.03
2023-03-12T12:26:09.462Z,1.77
2023-03-12T12:28:57.362Z,1.81
2023-03-12T12:31:41.929Z,1.84
2023-03-12T12:34:26.904Z,1.98
2023-03-12T12:37:19.040Z,1.80
2023-03-12T12:40:09.052Z,1.76
2023-03-12T12:42:44.076Z,1.70
2023-03-12T12:45:13.429Z,1.58
2023-03-12T12:47:51.083Z,1.97
2023-03-12T12:50:20.892Z,1.95
2023-03-12T12:52:53.754Z,1.84
2023-03-12T12:55:29.387Z,1.79
2023-03-12T12:58:00.975Z,1.61
2023-03-12T13:00:39.642Z,1.69
2023-03-12T13:03:06.969Z,1.39
2023-03-12T13:05:37.223Z,1.36
2023-03-12T13:08:06.295Z,1.12
2023-03-12T13:10:33.154Z,1.04
2023-03-12T13:13:21.515Z,0.90
2023-03-12T13:15:48.957Z,1.01
2023-03-12T13:18:25.654Z,1.01
2023-03-12T13:20:52.380Z,0.90
2023-03-12T13:23:46.234Z,1.00
2023-03-12T13:26:20.786Z,1.19
2023-03-12T13:29:06.146Z,1.18
2023-03-12T13:31:39.977Z,1.22
2023-03-12T13:34:06.677Z,1.16
2023-03-12T13:36:37.335Z,0.90
2023-03-12T13:39:07.138Z,0.86
2023-03-12T13:41:42.925Z,0.82
2023-03-12T13:44:29.212Z,0.73
2023-03-12T13:47:03.059Z,0.85
2023-03-12T13:49:42.566Z,0.83
2023-03-12T13:52:27.589Z,0.81
2023-03-12T13:55:07.370Z,0.76
2023-03-12T13:57:40.412Z,0.90
2023-03-12T14:00:18.440Z,0.81
2023-03-12T14:03:05.619Z,1.09
2023-03-12T14:05:53.536Z,1.01
2023-03-12T14:08:23.455Z,0.98
2023-03-12T14:10:56.534Z,1.08
2023-03-12T14:13:48.348Z,1.02
2023-03-12T14:16:21.573Z,0.88
2023-03-12T14:18:50.582Z,0.90
2023-03-12T14:21:18.896Z,0.84
2023-03-12T14:23:58.695Z,0.88
2023-03-12T14:26:30.028Z,0.89
2023-03-12T14:29:09.083Z,0.80
2023-03-12T14:31:38.281Z,0.68
2023-03-12T14:34:25.039Z,0.93
2023-03-12T14:37:00.989Z,1.03
2023-03-12T14:39:55.940Z,0.85
2023-03-12T14:42:26.242Z,0.98
2023-03-12T14:45:01.484Z,0.62
2023-03-12T14:47:28.913Z,0.97
2023-03-12T14:50:00.338Z,0.82
2023-03-12T14:52:29.727Z,0.64
2023-03-12T14:55:08.259Z,0.50
2023-03-12T14:57:35.614Z,0.55
2023-03-12T15:00:03.136Z,0.33
2023-03-12T15:02:31.690Z,-0.51
2023-03-12T15:05:00.795Z,-1.14
2023-03-12T15:07:40.630Z,-0.93
2023-03-12T15:10:18.377Z,-0.54
2023-03-12T15:12:46.305Z,-0.51
2023-03-12T15:15:29.073Z,-0.37
2023-03-12T15:17:56.850Z,-0.27
2023-03-12T15:20:24.268Z,-0.27
2023-03-12T15:22:55.030Z,-0.20
2023-03-12T15:25:23.477Z,-0.11
2023-03-12T15:28:02.272Z,-0.25
2023-03-12T15:30:29.868Z,-0.33
2023-03-12T15:33:07.016Z,-0.26
2023-03-12T15:35:39.010Z,-0.32
2023-03-12T15:38:06.681Z,-0.25
2023-03-12T15:40:33.661Z,-0.35
2023-03-12T15:43:05.466Z,-0.27
2023-03-12T15:45:43.002Z,-0.14
2023-03-12T15:48:34.518Z,-0.17
2023-03-12T15:51:01.774Z,-0.19
2023-03-12T15:53:31.735Z,-0.17
2023-03-12T15:56:04.448Z,-0.24
2023-03-12T15:58:41.839Z,-0.23
2023-03-12T16:01:24.091Z,-0.20
2023-03-12T16:03:52.150Z,-0.20
2023-03-12T16:06:29.109Z,-0.12
2023-03-12T16:09:00.634Z,-0.01
2023-03-12T16:11:31.464Z,-0.03
2023-03-12T16:14:29.805Z,0.01
2023-03-12T16:16:56.990Z,0.06
2023-03-12T16:19:29.307Z,0.04
2023-03-12T16:21:56.171Z,0.05
2023-03-12T16:24:22.937Z,-0.02
2023-03-12T16:26:55.269Z,0.02
2023-03-12T16:29:23.547Z,0.12
2023-03-12T16:31:56.182Z,0.17
2023-03-12T16:34:24.072Z,0.18
2023-03-12T16:36:51.519Z,-1.12
2023-03-12T16:39:19.191Z,-1.65
2023-03-12T16:41:46.771Z,-1.63
2023-03-12T16:44:17.062Z,-1.47
2023-03-12T16:46:45.472Z,-1.30
2023-03-12T16:49:16.927Z,-1.23
2023-03-12T16:51:44.007Z,-1.14
2023-03-12T16:54:12.442Z,-1.07
2023-03-12T16:56:44.106Z,-1.02
2023-03-12T16:59:24.512Z,-1.14
2023-03-12T17:01:51.984Z,-1.03
2023-03-12T17:04:18.913Z,-0.93
2023-03-12T17:06:46.582Z,-1.02
2023-03-12T17:09:13.291Z,-1.23
2023-03-12T17:11:41.118Z,-1.17
2023-03-12T17:14:29.456Z,-1.17
2023-03-12T17:16:56.176Z,-1.26
2023-03-12T17:19:23.093Z,-1.32
2023-03-12T17:21:49.994Z,-1.34
2023-03-12T17:24:17.064Z,-1.34
2023-03-12T17:26:45.599Z,-1.34
2023-03-12T17:29:13.753Z,-1.36
2023-03-12T17:31:41.034Z,-1.29
2023-03-12T17:34:08.859Z,-1.29
2023-03-12T17:36:37.940Z,-1.43
2023-03-12T17:39:07.211Z,-1.38
2023-03-12T17:41:34.350Z,-1.45
2023-03-12T17:44:03.739Z,-1.50
2023-03-12T17:46:30.941Z,-1.42
2023-03-12T17:48:58.055Z,-1.55
2023-03-12T17:51:26.127Z,-1.50
2023-03-12T17:53:52.851Z,-1.65
2023-03-12T17:56:20.604Z,-1.52
2023-03-12T17:58:48.056Z,-1.59
2023-03-12T18:01:16.106Z,-1.75
2023-03-12T18:03:44.743Z,-1.61
2023-03-12T18:06:12.825Z,-1.60
2023-03-12T18:08:42.376Z,-1.55
2023-03-12T18:11:10.256Z,-1.54
2023-03-12T18:13:39.868Z,-1.53
2023-03-12T18:16:08.683Z,-1.54
2023-03-12T18:18:36.344Z,-1.50
2023-03-12T18:21:06.873Z,-1.54
2023-03-12T18:23:33.903Z,-1.53
2023-03-12T18:26:01.177Z,-1.57
2023-03-12T18:28:28.821Z,-1.70
2023-03-12T18:30:55.806Z,-1.56
2023-03-12T18:33:23.225Z,-1.56
2023-03-12T18:35:54.349Z,-1.65
2023-03-12T18:38:21.435Z,-1.56
2023-03-12T18:40:51.526Z,-1.66
2023-03-12T18:43:20.199Z,-1.61
2023-03-12T18:45:49.867Z,-1.72
2023-03-12T18:48:16.977Z,-1.74
2023-03-12T18:50:44.129Z,-1.56
2023-03-12T18:53:11.684Z,-1.70
2023-03-12T18:55:38.673Z,-1.56
2023-03-12T18:58:05.845Z,-1.49
2023-03-12T19:00:33.272Z,-1.44
2023-03-12T19:03:00.746Z,-1.38
2023-03-12T19:05:28.154Z,-1.35
2023-03-12T19:07:54.826Z,-1.42
2023-03-12T19:10:21.913Z,-1.33
2023-03-12T19:12:53.375Z,-1.22
2023-03-12T19:15:24.515Z,-1.31
2023-03-12T19:17:54.403Z,-1.19
2023-03-12T19:20:24.254Z,-1.24
2023-03-12T19:22:51.022Z,-1.26
2023-03-12T19:25:20.439Z,-1.27
2023-03-12T19:27:48.931Z,-1.25
2023-03-12T19:30:15.898Z,-1.33
2023-03-12T19:32:44.443Z,-1.16
2023-03-12T19:35:13.711Z,-1.12
2023-03-12T19:37:41.388Z,-1.17
2023-03-12T19:40:11.382Z,-1.10
2023-03-12T19:42:39.328Z,-1.16
2023-03-12T19:45:07.340Z,-1.11
2023-03-12T19:47:35.087Z,-1.13
2023-03-12T19:50:03.739Z,-1.07
2023-03-12T19:52:31.198Z,-1.06
2023-03-12T19:55:04.793Z,-0.95
2023-03-12T19:57:33.693Z,-0.96
2023-03-12T20:00:02.134Z,-0.93
2023-03-12T20:02:29.113Z,-1.09
2023-03-12T20:04:57.090Z,-1.07
2023-03-12T20:07:23.875Z,-1.09
2023-03-12T20:09:52.203Z,-1.16
2023-03-12T20:12:19.136Z,-1.60
2023-03-12T20:14:46.138Z,-1.86
2023-03-12T20:17:14.383Z,-1.88
2023-03-12T20:19:43.209Z,-1.99
2023-03-12T20:22:10.852Z,-1.95
2023-03-12T20:24:39.472Z,-2.06
2023-03-12T20:27:06.299Z,-1.85
2023-03-12T20:29:34.451Z,-1.86
2023-03-12T20:32:01.217Z,-1.84
2023-03-12T20:34:28.666Z,-1.85
2023-03-12T20:36:56.082Z,-1.83
2023-03-12T20:39:23.097Z,-1.75
2023-03-12T20:41:50.597Z,-1.71
2023-03-12T20:44:18.768Z,-1.78
2023-03-12T20:46:47.702Z,-1.83
2023-03-12T20:49:16.391Z,-1.78
2023-03-12T20:51:44.776Z,-1.76
2023-03-12T20:54:15.061Z,-1.71
2023-03-12T20:56:44.429Z,-1.70
2023-03-12T20:59:17.040Z,-1.74
2023-03-12T21:01:44.152Z,-1.77
2023-03-12T21:04:11.456Z,-1.73
2023-03-12T21:06:39.771Z,-1.69
2023-03-12T21:09:08.383Z,-1.81
2023-03-12T21:11:35.257Z,-1.77
2023-03-12T21:14:02.409Z,-1.73
2023-03-12T21:16:29.557Z,-1.69
2023-03-12T21:19:00.616Z,-1.72
2023-03-12T21:21:28.223Z,-1.73
2023-03-12T21:23:56.316Z,-1.62
2023-03-12T21:26:22.974Z,-1.62
2023-03-12T21:29:04.998Z,-1.70
2023-03-12T21:31:31.912Z,-1.66
2023-03-12T21:33:58.656Z,-1.64
2023-03-12T21:36:26.456Z,-1.76
2023-03-12T21:38:54.136Z,-1.63
2023-03-12T21:41:21.110Z,-1.65
2023-03-12T21:43:48.226Z,-1.70
2023-03-12T21:46:20.533Z,-1.90
2023-03-12T21:48:48.642Z,-1.70
2023-03-12T21:51:17.802Z,-1.93
2023-03-12T21:53:44.863Z,-1.71
2023-03-12T21:56:12.940Z,-1.65
2023-03-12T21:58:40.283Z,-1.74
2023-03-12T22:01:08.751Z,-1.74
2023-03-12T22:03:36.404Z,-1.78
2023-03-12T22:06:03.976Z,-1.89
2023-03-12T22:08:30.896Z,-1.88
2023-03-12T22:10:59.582Z,-1.88
2023-03-12T22:13:27.031Z,-2.16
2023-03-12T22:16:00.036Z,-2.08
2023-03-12T22:18:28.253Z,-2.15
2023-03-12T22:21:00.716Z,-2.17
2023-03-12T22:23:28.885Z,-2.24
2023-03-12T22:25:56.519Z,-2.25
2023-03-12T22:28:25.799Z,-2.34
2023-03-12T22:31:05.197Z,-2.34
2023-03-12T22:33:32.525Z,-2.44
2023-03-12T22:36:00.629Z,-2.48
2023-03-12T22:38:28.795Z,-2.54
2023-03-12T22:40:56.489Z,-2.45
2023-03-12T22:43:26.244Z,-2.57
2023-03-12T22:45:55.921Z,-2.70
2023-03-12T22:48:24.320Z,-2.54
2023-03-12T22:50:54.469Z,-2.62
2023-03-12T22:53:23.412Z,-2.59
2023-03-12T22:56:11.055Z,-2.60
2023-03-12T22:58:38.818Z,-2.81
2023-03-12T23:01:12.217Z,-2.65
2023-03-12T23:03:40.463Z,-2.64
2023-03-12T23:06:13.701Z,-2.77
2023-03-12T23:08:40.950Z,-2.79
2023-03-12T23:11:09.518Z,-2.81
2023-03-12T23:13:39.175Z,-2.75
2023-03-12T23:16:11.598Z,-2.85
2023-03-12T23:18:41.101Z,-2.78
2023-03-12T23:21:10.452Z,-2.82
2023-03-12T23:23:40.607Z,-2.82
2023-03-12T23:26:09.236Z,-2.88
2023-03-12T23:28:37.084Z,-2.84
2023-03-12T23:31:06.528Z,-2.98
2023-03-12T23:33:34.975Z,-2.90
2023-03-12T23:36:04.204Z,-2.92
2023-03-12T23:38:31.826Z,-2.96
2023-03-12T23:41:11.291Z,-3.04
2023-03-12T23:43:38.106Z,-2.96
2023-03-12T23:46:06.392Z,-3.09
2023-03-12T23:48:35.674Z,-3.07
2023-03-12T23:51:23.432Z,-3.04
2023-03-12T23:53:52.221Z,-3.02
2023-03-12T23:56:22.631Z,-3.01
2023-03-12T23:58:51.582Z,-3.05
